createdAt,value
2022-08-24T00:00:35.186Z,75.10
2022-08-24T00:03:02.526Z,75.20
2022-08-24T00:05:30.245Z,75.60
2022-08-24T00:07:57.050Z,75.30
2022-08-24T00:10:24.212Z,76.00
2022-08-24T00:12:51.077Z,75.60
2022-08-24T00:15:17.962Z,76.00
2022-08-24T00:17:44.906Z,77.40
2022-08-24T00:22:56.446Z,77.90
2022-08-24T00:25:23.922Z,78.20
2022-08-24T00:27:50.622Z,78.10
2022-08-24T00:30:36.827Z,78.10
2022-08-24T00:33:03.542Z,78.10
2022-08-24T00:35:30.314Z,77.80
2022-08-24T00:37:59.059Z,78.20
2022-08-24T00:40:27.530Z,78.00
2022-08-24T00:42:55.369Z,78.40
2022-08-24T00:45:22.521Z,78.30
2022-08-24T00:47:59.053Z,78.80
2022-08-24T00:50:30.196Z,78.50
2022-08-24T00:52:59.061Z,78.50
2022-08-24T00:55:28.538Z,78.70
2022-08-24T00:57:59.049Z,79.20
2022-08-24T01:00:28.188Z,79.40
2022-08-24T01:02:58.634Z,79.40
2022-08-24T01:05:25.479Z,79.20
2022-08-24T01:07:52.216Z,79.70
2022-08-24T01:10:25.088Z,79.80
2022-08-24T01:13:10.607Z,80.50
2022-08-24T01:15:39.141Z,80.20
2022-08-24T01:18:29.407Z,80.60
2022-08-24T01:21:00.134Z,80.70
2022-08-24T01:23:36.373Z,81.00
2022-08-24T01:26:04.751Z,81.20
2022-08-24T01:29:09.246Z,81.70
2022-08-24T01:31:36.296Z,81.70
2022-08-24T01:34:05.108Z,81.20
2022-08-24T01:36:43.445Z,81.50
2022-08-24T01:39:21.363Z,81.40
2022-08-24T01:41:49.102Z,81.70
2022-08-24T01:44:16.059Z,82.00
2022-08-24T01:49:33.060Z,81.20
2022-08-24T01:51:59.878Z,81.40
2022-08-24T01:54:27.427Z,81.80
2022-08-24T01:56:54.928Z,82.10
2022-08-24T01:59:22.339Z,82.10
2022-08-24T02:01:54.506Z,82.00
2022-08-24T02:04:21.400Z,82.10
2022-08-24T02:06:48.065Z,82.40
2022-08-24T02:09:15.358Z,82.20
2022-08-24T02:14:27.009Z,82.40
2022-08-24T02:16:57.736Z,82.00
2022-08-24T02:19:44.124Z,82.20
2022-08-24T02:22:10.911Z,82.40
2022-08-24T02:24:37.658Z,82.00
2022-08-24T02:27:05.740Z,82.30
2022-08-24T02:29:32.691Z,82.10
2022-08-24T02:31:59.440Z,82.50
2022-08-24T02:34:45.308Z,82.00
2022-08-24T02:37:11.981Z,82.00
2022-08-24T02:39:38.666Z,82.80
2022-08-24T02:42:05.613Z,81.90
2022-08-24T02:44:32.334Z,81.40
2022-08-24T02:46:59.086Z,81.30
2022-08-24T02:49:25.807Z,81.30
2022-08-24T02:51:52.494Z,82.00
2022-08-24T02:54:19.489Z,81.90
2022-08-24T02:56:46.715Z,82.20
2022-08-24T02:59:32.071Z,82.40
2022-08-24T03:04:42.948Z,82.90
2022-08-24T03:07:17.087Z,82.50
2022-08-24T03:09:43.733Z,82.80
2022-08-24T03:12:11.061Z,82.50
2022-08-24T03:14:38.014Z,82.40
2022-08-24T03:17:11.846Z,82.30
2022-08-24T03:19:38.561Z,82.10
2022-08-24T03:22:05.306Z,82.30
2022-08-24T03:24:32.383Z,82.80
2022-08-24T03:26:59.898Z,82.30
2022-08-24T03:29:27.400Z,82.10
2022-08-24T03:32:00.451Z,82.00
2022-08-24T03:34:27.143Z,82.50
2022-08-24T03:36:54.230Z,82.70
2022-08-24T03:39:21.697Z,81.90
2022-08-24T03:41:48.564Z,82.00
2022-08-24T03:44:15.299Z,82.30
2022-08-24T03:46:42.015Z,82.80
2022-08-24T03:49:09.950Z,83.40
2022-08-24T03:51:37.330Z,83.30
2022-08-24T03:54:04.797Z,83.50
2022-08-24T03:59:19.857Z,83.40
2022-08-24T04:01:46.900Z,83.70
2022-08-24T04:04:13.691Z,83.80
2022-08-24T04:06:44.618Z,83.50
2022-08-24T04:09:11.784Z,83.70
2022-08-24T04:11:41.300Z,83.90
2022-08-24T04:14:10.541Z,84.50
2022-08-24T04:16:56.444Z,84.00
2022-08-24T04:19:25.568Z,83.70
2022-08-24T04:22:29.438Z,84.20
2022-08-24T04:24:56.278Z,83.70
2022-08-24T04:27:41.845Z,84.10
2022-08-24T04:30:09.063Z,84.60
2022-08-24T04:32:54.361Z,84.90
2022-08-24T04:35:41.061Z,84.20
2022-08-24T04:38:08.093Z,84.00
2022-08-24T04:40:35.161Z,84.60
2022-08-24T04:43:04.852Z,84.00
2022-08-24T04:45:34.478Z,83.80
2022-08-24T04:48:01.313Z,84.20
2022-08-24T04:50:28.671Z,84.20
2022-08-24T04:52:55.397Z,84.20
2022-08-24T04:55:22.090Z,83.70
2022-08-24T04:57:49.546Z,82.90
2022-08-24T05:00:16.306Z,82.60
2022-08-24T05:02:45.058Z,82.20
2022-08-24T05:05:30.661Z,82.30
2022-08-24T05:07:57.383Z,82.10
2022-08-24T05:10:24.306Z,82.00
2022-08-24T05:12:51.793Z,81.60
2022-08-24T05:15:18.656Z,80.60
2022-08-24T05:17:46.775Z,81.30
2022-08-24T05:20:17.657Z,80.40
2022-08-24T05:22:45.051Z,80.60
2022-08-24T05:25:11.741Z,79.50
2022-08-24T05:27:38.726Z,78.60
2022-08-24T05:30:05.778Z,79.00
2022-08-24T05:32:32.691Z,78.60
2022-08-24T05:35:02.416Z,77.90
2022-08-24T05:37:29.895Z,77.60
2022-08-24T05:42:41.773Z,77.40
2022-08-24T05:45:08.646Z,76.60
2022-08-24T05:47:35.311Z,76.70
2022-08-24T05:50:02.165Z,76.50
2022-08-24T05:52:28.893Z,76.00
2022-08-24T05:54:56.947Z,76.20
2022-08-24T05:57:25.573Z,76.30
2022-08-24T05:59:52.521Z,75.80
2022-08-24T06:02:38.207Z,75.10
2022-08-24T06:05:05.193Z,74.90
2022-08-24T06:07:31.883Z,74.30
2022-08-24T06:10:14.741Z,75.10
2022-08-24T06:12:46.337Z,75.50
2022-08-24T06:15:14.084Z,74.90
2022-08-24T06:17:40.873Z,76.30
2022-08-24T06:20:07.976Z,76.30
2022-08-24T06:22:35.635Z,73.20
2022-08-24T06:25:20.979Z,76.20
2022-08-24T06:27:47.933Z,76.20
2022-08-24T06:30:14.777Z,76.30
2022-08-24T06:32:43.990Z,75.20
2022-08-24T06:35:11.200Z,74.90
2022-08-24T06:37:38.209Z,77.00
2022-08-24T06:40:05.537Z,77.10
2022-08-24T06:48:03.659Z,76.60
2022-08-24T06:50:30.329Z,76.90
2022-08-24T06:52:57.107Z,77.70
2022-08-24T06:55:24.045Z,76.20
2022-08-24T06:57:52.683Z,78.70
2022-08-24T07:00:19.760Z,78.20
2022-08-24T07:03:06.194Z,78.60
2022-08-24T07:05:33.311Z,78.40
2022-08-24T07:08:00.779Z,77.70
2022-08-24T07:10:30.330Z,79.60
2022-08-24T07:12:57.476Z,79.30
2022-08-24T07:15:24.551Z,79.90
2022-08-24T07:17:51.979Z,79.10
2022-08-24T07:20:18.766Z,79.50
2022-08-24T07:22:45.721Z,79.70
2022-08-24T07:25:13.018Z,79.90
2022-08-24T07:27:39.712Z,80.10
2022-08-24T07:30:25.984Z,80.10
2022-08-24T07:32:54.506Z,80.80
2022-08-24T07:35:21.191Z,80.60
2022-08-24T07:37:47.877Z,80.60
2022-08-24T07:40:15.118Z,80.30
2022-08-24T07:42:42.364Z,79.60
2022-08-24T07:45:09.233Z,79.90
2022-08-24T07:47:39.990Z,81.50
2022-08-24T07:50:10.454Z,80.40
2022-08-24T07:52:37.186Z,82.30
2022-08-24T07:55:05.630Z,81.20
2022-08-24T07:57:53.727Z,81.00
2022-08-24T08:00:21.111Z,80.70
2022-08-24T08:02:48.381Z,80.60
2022-08-24T08:10:43.898Z,81.50
2022-08-24T08:13:10.593Z,80.60
2022-08-24T08:15:38.066Z,81.10
2022-08-24T08:18:05.085Z,80.90
2022-08-24T08:20:50.629Z,81.10
2022-08-24T08:23:37.456Z,80.70
2022-08-24T08:26:22.537Z,80.70
2022-08-24T08:28:49.235Z,78.90
2022-08-24T08:31:16.002Z,81.00
2022-08-24T08:33:42.712Z,80.80
2022-08-24T08:36:11.124Z,80.80
2022-08-24T08:38:39.884Z,81.20
2022-08-24T08:41:27.208Z,80.80
2022-08-24T08:44:05.902Z,81.00
2022-08-24T08:46:50.667Z,81.80
2022-08-24T08:49:20.363Z,81.60
2022-08-24T08:51:47.222Z,80.00
2022-08-24T08:54:43.853Z,81.70
2022-08-24T08:57:17.465Z,80.80
2022-08-24T09:00:16.926Z,81.50
2022-08-24T09:02:53.007Z,81.40
2022-08-24T09:05:48.931Z,80.80
2022-08-24T09:08:17.223Z,82.30
2022-08-24T09:10:43.911Z,80.00
2022-08-24T09:16:18.378Z,80.90
2022-08-24T09:19:04.306Z,80.70
2022-08-24T09:21:42.754Z,81.20
2022-08-24T09:24:29.704Z,80.00
2022-08-24T09:27:26.471Z,80.10
2022-08-24T09:29:55.681Z,82.10
2022-08-24T09:32:41.917Z,81.50
2022-08-24T09:35:26.492Z,80.10
2022-08-24T09:38:12.263Z,80.40
2022-08-24T09:40:41.099Z,79.50
2022-08-24T09:43:10.606Z,79.90
2022-08-24T09:45:56.162Z,79.70
2022-08-24T09:48:28.606Z,79.00
2022-08-24T09:51:14.073Z,78.50
2022-08-24T09:54:18.436Z,78.00
2022-08-24T09:57:11.971Z,79.20
2022-08-24T09:59:45.284Z,76.90
2022-08-24T10:02:30.642Z,79.80
2022-08-24T10:04:57.384Z,76.90
2022-08-24T10:07:34.061Z,80.50
2022-08-24T10:10:15.994Z,79.70
2022-08-24T10:13:17.197Z,75.60
2022-08-24T10:15:58.936Z,80.50
2022-08-24T10:18:25.645Z,76.70
2022-08-24T10:20:58.803Z,78.50
2022-08-24T10:24:06.204Z,80.40
2022-08-24T10:26:41.869Z,78.60
2022-08-24T10:29:30.361Z,76.00
2022-08-24T10:32:15.706Z,80.60
2022-08-24T10:34:49.646Z,79.40
2022-08-24T10:37:25.731Z,80.50
2022-08-24T10:40:02.833Z,80.60
2022-08-24T10:43:03.629Z,76.40
2022-08-24T10:45:33.256Z,81.90
2022-08-24T10:48:12.656Z,75.60
2022-08-24T10:50:42.126Z,79.50
2022-08-24T10:53:08.787Z,79.80
2022-08-24T10:55:35.823Z,81.60
2022-08-24T10:58:21.338Z,80.40
2022-08-24T11:00:48.676Z,80.10
2022-08-24T11:03:18.480Z,75.80
2022-08-24T11:05:51.067Z,78.80
2022-08-24T11:08:20.776Z,79.10
2022-08-24T11:11:03.763Z,78.60
2022-08-24T11:13:30.723Z,79.00
2022-08-24T11:15:59.714Z,77.20
2022-08-24T11:18:27.298Z,79.50
2022-08-24T11:20:55.163Z,80.40
2022-08-24T11:23:22.369Z,80.10
2022-08-24T11:25:52.143Z,79.70
2022-08-24T11:28:29.908Z,80.20
2022-08-24T11:30:57.086Z,79.80
2022-08-24T11:33:23.752Z,81.10
2022-08-24T11:35:50.461Z,77.90
2022-08-24T11:38:22.306Z,80.00
2022-08-24T11:43:42.651Z,79.70
2022-08-24T11:46:36.638Z,79.70
2022-08-24T11:49:08.453Z,77.80
2022-08-24T11:51:35.704Z,79.40
2022-08-24T11:54:08.709Z,78.50
2022-08-24T11:56:44.176Z,80.30
2022-08-24T11:59:13.526Z,79.20
2022-08-24T12:01:46.425Z,79.60
2022-08-24T12:04:31.366Z,80.60
2022-08-24T12:07:04.252Z,80.30
2022-08-24T12:09:40.034Z,79.90
2022-08-24T12:12:26.162Z,77.80
2022-08-24T12:14:54.923Z,76.20
2022-08-24T12:17:26.737Z,80.00
2022-08-24T12:19:56.736Z,80.40
2022-08-24T12:22:23.506Z,80.90
2022-08-24T12:24:53.743Z,78.60
2022-08-24T12:27:26.079Z,80.50
2022-08-24T12:29:55.733Z,79.50
2022-08-24T12:32:28.483Z,76.20
2022-08-24T12:35:05.270Z,80.00
2022-08-24T12:40:32.077Z,79.60
2022-08-24T12:43:26.153Z,79.10
2022-08-24T12:45:55.295Z,79.80
2022-08-24T12:48:40.795Z,80.00
2022-08-24T12:51:10.538Z,80.50
2022-08-24T12:56:41.337Z,80.00
2022-08-24T12:59:15.953Z,76.90
2022-08-24T13:01:58.047Z,79.70
2022-08-24T13:04:34.272Z,78.10
2022-08-24T13:07:05.141Z,81.20
2022-08-24T13:09:34.027Z,78.50
2022-08-24T13:12:27.649Z,77.50
2022-08-24T13:14:56.659Z,79.60
2022-08-24T13:17:39.735Z,79.10
2022-08-24T13:20:29.493Z,79.20
2022-08-24T13:23:05.236Z,80.30
2022-08-24T13:28:42.725Z,77.80
2022-08-24T13:31:10.225Z,81.80
2022-08-24T13:33:55.543Z,80.20
2022-08-24T13:36:31.520Z,80.70
2022-08-24T13:39:15.569Z,79.30
2022-08-24T13:42:03.922Z,80.00
2022-08-24T13:44:38.815Z,79.00
2022-08-24T13:47:16.952Z,81.10
2022-08-24T13:50:01.808Z,80.30
2022-08-24T13:52:39.397Z,80.80
2022-08-24T13:55:06.032Z,79.60
2022-08-24T13:57:38.723Z,80.00
2022-08-24T14:00:32.283Z,80.20
2022-08-24T14:03:13.988Z,78.60
2022-08-24T14:05:48.349Z,73.10
2022-08-24T14:08:25.220Z,76.30
2022-08-24T14:11:11.189Z,74.90
2022-08-24T14:13:45.092Z,75.70
2022-08-24T14:16:49.858Z,78.90
2022-08-24T14:19:19.537Z,78.50
2022-08-24T14:21:52.037Z,79.10
2022-08-24T14:24:33.996Z,76.00
2022-08-24T14:27:03.027Z,77.20
2022-08-24T14:29:50.908Z,74.30
2022-08-24T14:32:23.418Z,73.70
2022-08-24T14:34:55.540Z,78.40
2022-08-24T14:37:28.355Z,77.10
2022-08-24T14:39:58.376Z,80.00
2022-08-24T14:42:43.876Z,78.90
2022-08-24T14:45:18.118Z,79.90
2022-08-24T14:48:08.868Z,74.50
2022-08-24T14:50:39.898Z,77.50
2022-08-24T14:53:26.095Z,79.50
2022-08-24T14:56:24.985Z,73.30
2022-08-24T14:59:02.888Z,74.70
2022-08-24T15:01:39.036Z,79.20
2022-08-24T15:04:36.155Z,78.00
2022-08-24T15:07:23.786Z,79.00
2022-08-24T15:09:51.940Z,78.60
2022-08-24T15:12:37.315Z,75.80
2022-08-24T15:15:14.018Z,76.70
2022-08-24T15:17:59.714Z,80.90
2022-08-24T15:20:40.917Z,79.30
2022-08-24T15:23:13.411Z,79.30
2022-08-24T15:25:46.195Z,79.10
2022-08-24T15:28:26.788Z,79.20
2022-08-24T15:31:29.243Z,78.60
2022-08-24T15:33:58.138Z,79.30
2022-08-24T15:39:09.616Z,77.00
2022-08-24T15:41:41.786Z,75.40
2022-08-24T15:44:28.324Z,78.60
2022-08-24T15:46:57.151Z,80.30
2022-08-24T15:52:09.785Z,77.90
2022-08-24T15:54:45.453Z,77.40
2022-08-24T15:57:18.251Z,78.50
2022-08-24T15:59:47.221Z,78.20
2022-08-24T16:02:26.484Z,75.10
2022-08-24T16:05:14.099Z,78.40
2022-08-24T16:07:59.779Z,76.40
2022-08-24T16:10:41.710Z,74.40
2022-08-24T16:13:18.319Z,74.30
2022-08-24T16:15:44.979Z,74.50
2022-08-24T16:18:12.574Z,75.80
2022-08-24T16:20:39.344Z,78.80
2022-08-24T16:23:11.310Z,78.40
2022-08-24T16:28:36.435Z,79.30
2022-08-24T16:31:07.404Z,78.40
2022-08-24T16:33:43.382Z,78.40
2022-08-24T16:36:16.298Z,78.90
2022-08-24T16:38:46.950Z,78.10
2022-08-24T16:41:16.248Z,80.80
2022-08-24T16:43:43.360Z,78.50
2022-08-24T16:46:29.899Z,76.80
2022-08-24T16:48:56.620Z,78.30
2022-08-24T16:51:24.641Z,74.80
2022-08-24T16:53:52.405Z,78.40
2022-08-24T16:56:19.478Z,75.10
2022-08-24T16:58:47.412Z,80.90
2022-08-24T17:01:16.470Z,80.60
2022-08-24T17:03:43.233Z,77.40
2022-08-24T17:06:12.480Z,77.10
2022-08-24T17:08:39.716Z,78.20
2022-08-24T17:11:06.473Z,79.00
2022-08-24T17:13:48.989Z,78.40
2022-08-24T17:16:16.631Z,79.30
2022-08-24T17:18:43.763Z,79.50
2022-08-24T17:21:13.862Z,78.70
2022-08-24T17:23:42.230Z,77.10
2022-08-24T17:26:20.565Z,78.90
2022-08-24T17:28:50.218Z,79.00
2022-08-24T17:31:17.223Z,79.80
2022-08-24T17:33:43.948Z,78.90
2022-08-24T17:36:15.321Z,79.50
2022-08-24T17:38:51.550Z,79.90
2022-08-24T17:41:22.504Z,79.60
2022-08-24T17:43:49.248Z,79.30
2022-08-24T17:46:17.131Z,79.10
2022-08-24T17:48:45.610Z,79.60
2022-08-24T17:51:13.553Z,79.40
2022-08-24T17:53:40.273Z,79.80
2022-08-24T17:56:09.525Z,79.80
2022-08-24T17:59:13.591Z,79.60
2022-08-24T18:01:41.863Z,79.70
2022-08-24T18:04:08.533Z,79.90
2022-08-24T18:06:35.303Z,80.00
2022-08-24T18:09:05.562Z,80.00
2022-08-24T18:11:32.388Z,80.30
2022-08-24T18:14:01.529Z,80.10
2022-08-24T18:16:28.422Z,80.20
2022-08-24T18:18:55.313Z,80.20
2022-08-24T18:21:22.465Z,80.10
2022-08-24T18:23:50.272Z,80.30
2022-08-24T18:26:25.912Z,80.10
2022-08-24T18:28:57.021Z,80.50
2022-08-24T18:31:25.745Z,80.80
2022-08-24T18:33:52.521Z,80.90
2022-08-24T18:36:19.231Z,81.00
2022-08-24T18:38:45.953Z,81.30
2022-08-24T18:41:12.727Z,80.90
2022-08-24T18:43:59.675Z,81.00
2022-08-24T18:46:27.714Z,81.40
2022-08-24T18:48:54.446Z,81.50
2022-08-24T18:51:21.709Z,81.70
2022-08-24T18:53:48.886Z,81.80
2022-08-24T18:56:35.354Z,81.80
2022-08-24T18:59:02.748Z,82.20
2022-08-24T19:01:29.727Z,82.10
2022-08-24T19:03:57.736Z,82.20
2022-08-24T19:06:24.969Z,82.40
2022-08-24T19:08:51.759Z,81.70
2022-08-24T19:11:22.072Z,82.40
2022-08-24T19:13:48.832Z,81.70
2022-08-24T19:16:15.822Z,82.40
2022-08-24T19:18:42.623Z,82.20
2022-08-24T19:21:09.311Z,83.00
2022-08-24T19:23:55.774Z,82.30
2022-08-24T19:26:24.318Z,82.30
2022-08-24T19:28:51.583Z,82.40
2022-08-24T19:31:20.249Z,82.30
2022-08-24T19:33:49.814Z,82.30
2022-08-24T19:36:17.078Z,82.40
2022-08-24T19:38:44.957Z,82.20
2022-08-24T19:44:27.206Z,82.40
2022-08-24T19:46:55.574Z,82.50
2022-08-24T19:49:22.816Z,83.00
2022-08-24T19:51:50.258Z,82.90
2022-08-24T19:54:17.181Z,82.90
2022-08-24T19:56:43.931Z,82.90
2022-08-24T19:59:24.281Z,83.20
2022-08-24T20:01:51.828Z,82.90
2022-08-24T20:04:18.629Z,82.70
2022-08-24T20:06:45.471Z,83.10
2022-08-24T20:09:12.987Z,82.80
2022-08-24T20:11:39.698Z,82.80
2022-08-24T20:14:06.672Z,82.50
2022-08-24T20:16:38.079Z,80.90
2022-08-24T20:19:05.199Z,81.20
2022-08-24T20:21:32.014Z,80.40
2022-08-24T20:24:01.961Z,81.00
2022-08-24T20:26:32.793Z,80.90
2022-08-24T20:28:59.639Z,82.40
2022-08-24T20:31:28.811Z,82.20
2022-08-24T20:33:57.175Z,81.50
2022-08-24T20:36:29.934Z,82.80
2022-08-24T20:38:57.514Z,83.50
2022-08-24T20:41:24.532Z,82.70
2022-08-24T20:43:51.277Z,83.20
2022-08-24T20:46:18.101Z,82.00
2022-08-24T20:48:45.326Z,81.80
2022-08-24T20:51:31.152Z,81.20
2022-08-24T20:53:59.395Z,81.80
2022-08-24T20:56:31.460Z,81.60
2022-08-24T20:59:00.613Z,81.60
2022-08-24T21:01:27.380Z,80.80
2022-08-24T21:03:54.719Z,80.90
2022-08-24T21:06:40.021Z,80.50
2022-08-24T21:09:07.304Z,81.90
2022-08-24T21:11:40.381Z,80.20
2022-08-24T21:14:25.532Z,81.20
2022-08-24T21:16:59.044Z,82.20
2022-08-24T21:19:44.591Z,80.80
2022-08-24T21:22:12.057Z,83.60
2022-08-24T21:24:40.529Z,83.00
2022-08-24T21:27:07.219Z,80.40
2022-08-24T21:29:34.061Z,81.50
2022-08-24T21:32:19.308Z,79.80
2022-08-24T21:35:05.320Z,80.90
2022-08-24T21:37:32.020Z,82.30
2022-08-24T21:39:58.921Z,83.10
2022-08-24T21:42:26.983Z,83.10
2022-08-24T21:44:53.673Z,83.10
2022-08-24T21:50:42.765Z,83.00
2022-08-24T21:53:09.906Z,83.70
2022-08-24T21:55:36.817Z,83.70
2022-08-24T21:58:03.521Z,83.60
2022-08-24T22:00:30.847Z,83.60
2022-08-24T22:02:57.583Z,83.50
2022-08-24T22:05:24.285Z,83.70
2022-08-24T22:07:51.775Z,83.80
2022-08-24T22:10:18.507Z,84.20
2022-08-24T22:12:45.362Z,84.20
2022-08-24T22:15:32.677Z,81.70
2022-08-24T22:17:59.486Z,82.70
2022-08-24T22:20:26.272Z,83.90
2022-08-24T22:22:54.699Z,84.50
2022-08-24T22:25:21.411Z,84.80
2022-08-24T22:27:48.686Z,84.90
2022-08-24T22:30:17.074Z,84.80
2022-08-24T22:32:44.326Z,84.80
2022-08-24T22:35:29.384Z,85.00
2022-08-24T22:37:58.662Z,85.00
2022-08-24T22:40:25.440Z,84.90
2022-08-24T22:42:52.964Z,85.00
2022-08-24T22:45:20.000Z,85.30
2022-08-24T22:47:46.684Z,85.20
2022-08-24T22:50:34.963Z,85.30
2022-08-24T22:53:01.703Z,85.40
2022-08-24T22:55:49.214Z,85.40
2022-08-24T22:58:15.902Z,85.10
2022-08-24T23:00:42.572Z,85.20
2022-08-24T23:03:09.603Z,83.90
2022-08-24T23:05:36.296Z,84.10
2022-08-24T23:11:06.839Z,83.50
2022-08-24T23:13:34.469Z,83.10
2022-08-24T23:16:01.370Z,83.00
2022-08-24T23:18:47.279Z,82.90
2022-08-24T23:21:14.441Z,82.40
2022-08-24T23:23:42.404Z,84.10
2022-08-24T23:26:09.113Z,82.00
2022-08-24T23:28:41.553Z,83.00
2022-08-24T23:31:09.444Z,82.30
2022-08-24T23:33:39.366Z,81.50
2022-08-24T23:36:10.982Z,81.30
2022-08-24T23:38:38.646Z,82.00
2022-08-24T23:41:09.036Z,82.50
2022-08-24T23:43:36.574Z,82.60
2022-08-24T23:48:55.399Z,82.20
2022-08-24T23:51:23.191Z,82.70
2022-08-24T23:53:52.159Z,83.80
2022-08-24T23:56:20.626Z,84.20
2022-08-24T23:58:49.968Z,84.20
